sensor_id;sensor_type;location;lat;lon;timestamp;temperature;humidity
21167;DHT22;10741;52.272;9.580;2023-07-20T00:01:12;15.60;99.90
21167;DHT22;10741;52.272;9.580;2023-07-20T00:03:39;15.60;99.90
21167;DHT22;10741;52.272;9.580;2023-07-20T00:06:04;15.50;99.90
21167;DHT22;10741;52.272;9.580;2023-07-20T00:08:30;15.50;99.90
21167;DHT22;10741;52.272;9.580;2023-07-20T00:10:56;15.50;99.90
21167;DHT22;10741;52.272;9.580;2023-07-20T00:13:22;15.40;99.90
21167;DHT22;10741;52.272;9.580;2023-07-20T00:15:48;15.40;99.90
21167;DHT22;10741;52.272;9.580;2023-07-20T00:18:14;15.30;99.90
21167;DHT22;10741;52.272;9.580;2023-07-20T00:20:40;15.30;99.90
21167;DHT22;10741;52.272;9.580;2023-07-20T00:23:06;15.20;99.90
21167;DHT22;10741;52.272;9.580;2023-07-20T00:25:32;15.20;99.90
21167;DHT22;10741;52.272;9.580;2023-07-20T00:27:58;15.10;99.90
21167;DHT22;10741;52.272;9.580;2023-07-20T00:30:24;15.10;99.90
21167;DHT22;10741;52.272;9.580;2023-07-20T00:32:50;15.00;99.90
21167;DHT22;10741;52.272;9.580;2023-07-20T00:35:16;15.00;99.90
21167;DHT22;10741;52.272;9.580;2023-07-20T00:37:42;15.00;99.90
21167;DHT22;10741;52.272;9.580;2023-07-20T00:40:08;15.10;99.90
21167;DHT22;10741;52.272;9.580;2023-07-20T00:42:34;15.00;99.90
21167;DHT22;10741;52.272;9.580;2023-07-20T00:44:59;15.00;99.90
21167;DHT22;10741;52.272;9.580;2023-07-20T00:47:26;15.00;99.90
21167;DHT22;10741;52.272;9.580;2023-07-20T00:49:53;15.00;99.90
21167;DHT22;10741;52.272;9.580;2023-07-20T00:52:21;15.00;99.90
21167;DHT22;10741;52.272;9.580;2023-07-20T00:54:47;14.90;99.90
21167;DHT22;10741;52.272;9.580;2023-07-20T00:57:15;14.90;99.90
21167;DHT22;10741;52.272;9.580;2023-07-20T00:59:41;14.80;99.90
21167;DHT22;10741;52.272;9.580;2023-07-20T01:02:07;14.80;99.90
21167;DHT22;10741;52.272;9.580;2023-07-20T01:04:33;14.80;99.90
21167;DHT22;10741;52.272;9.580;2023-07-20T01:09:35;14.80;99.90
21167;DHT22;10741;52.272;9.580;2023-07-20T01:12:13;14.80;99.90
21167;DHT22;10741;52.272;9.580;2023-07-20T01:14:41;14.80;99.90
21167;DHT22;10741;52.272;9.580;2023-07-20T01:17:07;14.80;99.90
21167;DHT22;10741;52.272;9.580;2023-07-20T01:19:33;14.80;99.90
21167;DHT22;10741;52.272;9.580;2023-07-20T01:28:35;14.70;99.90
21167;DHT22;10741;52.272;9.580;2023-07-20T01:33:44;14.50;99.90
21167;DHT22;10741;52.272;9.580;2023-07-20T01:36:11;14.50;99.90
21167;DHT22;10741;52.272;9.580;2023-07-20T01:38:38;14.50;99.90
21167;DHT22;10741;52.272;9.580;2023-07-20T01:41:05;14.50;99.90
21167;DHT22;10741;52.272;9.580;2023-07-20T01:43:31;14.60;99.90
21167;DHT22;10741;52.272;9.580;2023-07-20T01:45:57;14.60;99.90
21167;DHT22;10741;52.272;9.580;2023-07-20T01:48:22;14.60;99.90
21167;DHT22;10741;52.272;9.580;2023-07-20T01:50:48;14.70;99.90
21167;DHT22;10741;52.272;9.580;2023-07-20T01:53:14;14.60;99.90
21167;DHT22;10741;52.272;9.580;2023-07-20T01:55:39;14.60;99.90
21167;DHT22;10741;52.272;9.580;2023-07-20T01:58:05;14.60;99.90
21167;DHT22;10741;52.272;9.580;2023-07-20T02:00:32;14.60;99.90
21167;DHT22;10741;52.272;9.580;2023-07-20T02:02:57;14.60;99.90
21167;DHT22;10741;52.272;9.580;2023-07-20T02:05:23;14.60;99.90
21167;DHT22;10741;52.272;9.580;2023-07-20T02:07:49;14.70;99.90
21167;DHT22;10741;52.272;9.580;2023-07-20T02:10:15;14.70;99.90
21167;DHT22;10741;52.272;9.580;2023-07-20T02:12:41;14.60;99.90
21167;DHT22;10741;52.272;9.580;2023-07-20T02:15:07;14.60;99.90
21167;DHT22;10741;52.272;9.580;2023-07-20T02:17:33;14.60;99.90
21167;DHT22;10741;52.272;9.580;2023-07-20T02:19:59;14.50;99.90
21167;DHT22;10741;52.272;9.580;2023-07-20T02:22:25;14.60;99.90
21167;DHT22;10741;52.272;9.580;2023-07-20T02:24:51;14.50;99.90
21167;DHT22;10741;52.272;9.580;2023-07-20T02:27:16;14.40;99.90
21167;DHT22;10741;52.272;9.580;2023-07-20T02:29:42;14.30;99.90
21167;DHT22;10741;52.272;9.580;2023-07-20T02:32:09;14.30;99.90
21167;DHT22;10741;52.272;9.580;2023-07-20T02:34:37;14.20;99.90
21167;DHT22;10741;52.272;9.580;2023-07-20T02:37:04;14.20;99.90
21167;DHT22;10741;52.272;9.580;2023-07-20T02:39:30;14.20;99.90
21167;DHT22;10741;52.272;9.580;2023-07-20T02:41:56;14.20;99.90
21167;DHT22;10741;52.272;9.580;2023-07-20T02:44:22;14.20;99.90
21167;DHT22;10741;52.272;9.580;2023-07-20T02:46:48;14.30;99.90
21167;DHT22;10741;52.272;9.580;2023-07-20T02:49:15;14.30;99.90
21167;DHT22;10741;52.272;9.580;2023-07-20T02:51:41;14.30;99.90
21167;DHT22;10741;52.272;9.580;2023-07-20T02:54:07;14.40;99.90
21167;DHT22;10741;52.272;9.580;2023-07-20T02:56:34;14.40;99.90
21167;DHT22;10741;52.272;9.580;2023-07-20T02:59:01;14.40;99.90
21167;DHT22;10741;52.272;9.580;2023-07-20T03:01:27;14.40;99.90
21167;DHT22;10741;52.272;9.580;2023-07-20T03:03:55;14.30;99.90
21167;DHT22;10741;52.272;9.580;2023-07-20T03:06:21;14.30;99.90
21167;DHT22;10741;52.272;9.580;2023-07-20T03:08:47;14.20;99.90
21167;DHT22;10741;52.272;9.580;2023-07-20T03:11:17;14.30;99.90
21167;DHT22;10741;52.272;9.580;2023-07-20T03:13:44;14.30;99.90
21167;DHT22;10741;52.272;9.580;2023-07-20T03:16:11;14.30;99.90
21167;DHT22;10741;52.272;9.580;2023-07-20T03:18:41;14.30;99.90
21167;DHT22;10741;52.272;9.580;2023-07-20T03:21:08;14.40;99.90
21167;DHT22;10741;52.272;9.580;2023-07-20T03:23:34;14.50;99.90
21167;DHT22;10741;52.272;9.580;2023-07-20T03:26:00;14.50;99.90
21167;DHT22;10741;52.272;9.580;2023-07-20T03:28:26;14.50;99.90
21167;DHT22;10741;52.272;9.580;2023-07-20T03:30:55;14.50;99.90
21167;DHT22;10741;52.272;9.580;2023-07-20T03:33:29;14.50;99.90
21167;DHT22;10741;52.272;9.580;2023-07-20T03:35:55;14.50;99.90
21167;DHT22;10741;52.272;9.580;2023-07-20T03:38:22;14.50;99.90
21167;DHT22;10741;52.272;9.580;2023-07-20T03:40:52;14.50;99.90
21167;DHT22;10741;52.272;9.580;2023-07-20T03:43:18;14.50;99.90
21167;DHT22;10741;52.272;9.580;2023-07-20T03:45:44;14.50;99.90
21167;DHT22;10741;52.272;9.580;2023-07-20T03:48:11;14.60;99.90
21167;DHT22;10741;52.272;9.580;2023-07-20T03:50:37;14.50;99.90
21167;DHT22;10741;52.272;9.580;2023-07-20T03:53:03;14.60;99.90
21167;DHT22;10741;52.272;9.580;2023-07-20T03:55:28;14.70;99.90
21167;DHT22;10741;52.272;9.580;2023-07-20T03:57:54;14.70;99.90
21167;DHT22;10741;52.272;9.580;2023-07-20T04:00:20;14.70;99.90
21167;DHT22;10741;52.272;9.580;2023-07-20T04:02:46;14.70;99.90
21167;DHT22;10741;52.272;9.580;2023-07-20T04:05:12;14.70;99.90
21167;DHT22;10741;52.272;9.580;2023-07-20T04:07:37;14.80;99.90
21167;DHT22;10741;52.272;9.580;2023-07-20T04:10:03;14.80;99.90
21167;DHT22;10741;52.272;9.580;2023-07-20T04:12:29;14.80;99.90
21167;DHT22;10741;52.272;9.580;2023-07-20T04:14:55;14.80;99.90
21167;DHT22;10741;52.272;9.580;2023-07-20T04:17:21;14.80;99.90
21167;DHT22;10741;52.272;9.580;2023-07-20T04:19:46;14.80;99.90
21167;DHT22;10741;52.272;9.580;2023-07-20T04:22:12;14.80;99.90
21167;DHT22;10741;52.272;9.580;2023-07-20T04:24:44;14.80;99.90
21167;DHT22;10741;52.272;9.580;2023-07-20T04:27:09;14.90;99.90
21167;DHT22;10741;52.272;9.580;2023-07-20T04:29:35;14.90;99.90
21167;DHT22;10741;52.272;9.580;2023-07-20T04:32:01;14.90;99.90
21167;DHT22;10741;52.272;9.580;2023-07-20T04:34:26;14.90;99.90
21167;DHT22;10741;52.272;9.580;2023-07-20T04:36:52;14.90;99.90
21167;DHT22;10741;52.272;9.580;2023-07-20T04:39:18;14.90;99.90
21167;DHT22;10741;52.272;9.580;2023-07-20T04:41:44;14.90;99.90
21167;DHT22;10741;52.272;9.580;2023-07-20T04:44:10;14.90;99.90
21167;DHT22;10741;52.272;9.580;2023-07-20T04:46:35;14.90;99.90
21167;DHT22;10741;52.272;9.580;2023-07-20T04:49:01;14.90;99.90
21167;DHT22;10741;52.272;9.580;2023-07-20T04:51:27;14.90;99.90
21167;DHT22;10741;52.272;9.580;2023-07-20T04:53:55;14.90;99.90
21167;DHT22;10741;52.272;9.580;2023-07-20T04:56:21;14.80;99.90
21167;DHT22;10741;52.272;9.580;2023-07-20T04:58:48;14.80;99.90
21167;DHT22;10741;52.272;9.580;2023-07-20T05:01:14;14.80;99.90
21167;DHT22;10741;52.272;9.580;2023-07-20T05:03:40;14.80;99.90
21167;DHT22;10741;52.272;9.580;2023-07-20T05:06:06;14.80;99.90
21167;DHT22;10741;52.272;9.580;2023-07-20T05:08:31;14.90;99.90
21167;DHT22;10741;52.272;9.580;2023-07-20T05:10:57;14.90;99.90
21167;DHT22;10741;52.272;9.580;2023-07-20T05:13:23;14.90;99.90
21167;DHT22;10741;52.272;9.580;2023-07-20T05:15:53;14.90;99.90
21167;DHT22;10741;52.272;9.580;2023-07-20T05:18:19;15.00;99.90
21167;DHT22;10741;52.272;9.580;2023-07-20T05:20:49;15.00;99.90
21167;DHT22;10741;52.272;9.580;2023-07-20T05:23:17;15.00;99.90
21167;DHT22;10741;52.272;9.580;2023-07-20T05:25:43;15.10;99.90
21167;DHT22;10741;52.272;9.580;2023-07-20T05:28:11;15.10;99.90
21167;DHT22;10741;52.272;9.580;2023-07-20T05:30:37;15.00;99.90
21167;DHT22;10741;52.272;9.580;2023-07-20T05:33:03;15.00;99.90
21167;DHT22;10741;52.272;9.580;2023-07-20T05:35:29;15.10;99.90
21167;DHT22;10741;52.272;9.580;2023-07-20T05:37:55;15.00;99.90
21167;DHT22;10741;52.272;9.580;2023-07-20T05:40:20;15.10;99.90
21167;DHT22;10741;52.272;9.580;2023-07-20T05:42:47;15.00;99.90
21167;DHT22;10741;52.272;9.580;2023-07-20T05:45:14;15.00;99.90
21167;DHT22;10741;52.272;9.580;2023-07-20T05:47:41;15.00;99.90
21167;DHT22;10741;52.272;9.580;2023-07-20T05:50:07;15.00;99.90
21167;DHT22;10741;52.272;9.580;2023-07-20T05:52:33;15.00;99.90
21167;DHT22;10741;52.272;9.580;2023-07-20T05:54:59;15.00;99.90
21167;DHT22;10741;52.272;9.580;2023-07-20T05:57:25;15.00;99.90
21167;DHT22;10741;52.272;9.580;2023-07-20T05:59:50;15.10;99.90
21167;DHT22;10741;52.272;9.580;2023-07-20T06:02:16;15.20;99.90
21167;DHT22;10741;52.272;9.580;2023-07-20T06:04:42;15.30;99.90
21167;DHT22;10741;52.272;9.580;2023-07-20T06:07:08;15.30;99.90
21167;DHT22;10741;52.272;9.580;2023-07-20T06:09:34;15.40;99.90
21167;DHT22;10741;52.272;9.580;2023-07-20T06:11:59;15.40;99.90
21167;DHT22;10741;52.272;9.580;2023-07-20T06:14:25;15.50;99.90
21167;DHT22;10741;52.272;9.580;2023-07-20T06:16:51;15.50;99.90
21167;DHT22;10741;52.272;9.580;2023-07-20T06:19:17;15.60;99.90
21167;DHT22;10741;52.272;9.580;2023-07-20T06:21:43;15.70;99.90
21167;DHT22;10741;52.272;9.580;2023-07-20T06:24:09;15.80;99.90
21167;DHT22;10741;52.272;9.580;2023-07-20T06:26:35;15.80;99.90
21167;DHT22;10741;52.272;9.580;2023-07-20T06:29:05;15.80;99.90
21167;DHT22;10741;52.272;9.580;2023-07-20T06:31:32;15.80;99.90
21167;DHT22;10741;52.272;9.580;2023-07-20T06:33:58;15.90;99.90
21167;DHT22;10741;52.272;9.580;2023-07-20T06:36:24;15.80;99.90
21167;DHT22;10741;52.272;9.580;2023-07-20T06:38:51;15.80;99.90
21167;DHT22;10741;52.272;9.580;2023-07-20T06:41:17;15.70;99.90
21167;DHT22;10741;52.272;9.580;2023-07-20T06:43:43;15.70;99.90
21167;DHT22;10741;52.272;9.580;2023-07-20T06:46:09;15.80;99.90
21167;DHT22;10741;52.272;9.580;2023-07-20T06:48:35;16.00;99.90
21167;DHT22;10741;52.272;9.580;2023-07-20T06:51:00;16.20;99.90
21167;DHT22;10741;52.272;9.580;2023-07-20T06:53:26;16.40;99.90
21167;DHT22;10741;52.272;9.580;2023-07-20T06:55:52;16.50;99.90
21167;DHT22;10741;52.272;9.580;2023-07-20T06:58:18;16.60;99.90
21167;DHT22;10741;52.272;9.580;2023-07-20T07:00:44;16.70;99.90
21167;DHT22;10741;52.272;9.580;2023-07-20T07:03:10;17.00;99.90
21167;DHT22;10741;52.272;9.580;2023-07-20T07:05:39;17.30;99.90
21167;DHT22;10741;52.272;9.580;2023-07-20T07:08:05;17.60;99.90
21167;DHT22;10741;52.272;9.580;2023-07-20T07:10:31;17.80;99.90
21167;DHT22;10741;52.272;9.580;2023-07-20T07:12:57;17.90;99.90
21167;DHT22;10741;52.272;9.580;2023-07-20T07:15:23;18.00;99.90
21167;DHT22;10741;52.272;9.580;2023-07-20T07:17:48;17.70;99.90
21167;DHT22;10741;52.272;9.580;2023-07-20T07:20:15;17.40;99.90
21167;DHT22;10741;52.272;9.580;2023-07-20T07:22:41;17.20;99.90
21167;DHT22;10741;52.272;9.580;2023-07-20T07:25:09;16.90;99.90
21167;DHT22;10741;52.272;9.580;2023-07-20T07:27:35;16.90;99.90
21167;DHT22;10741;52.272;9.580;2023-07-20T07:30:04;16.80;99.90
21167;DHT22;10741;52.272;9.580;2023-07-20T07:32:31;17.00;99.90
21167;DHT22;10741;52.272;9.580;2023-07-20T07:34:57;17.20;99.90
21167;DHT22;10741;52.272;9.580;2023-07-20T07:37:24;17.40;99.90
21167;DHT22;10741;52.272;9.580;2023-07-20T07:39:50;17.60;99.90
21167;DHT22;10741;52.272;9.580;2023-07-20T07:42:15;17.90;99.90
21167;DHT22;10741;52.272;9.580;2023-07-20T07:44:41;17.90;99.90
21167;DHT22;10741;52.272;9.580;2023-07-20T07:47:07;18.10;99.90
21167;DHT22;10741;52.272;9.580;2023-07-20T07:49:33;18.10;99.90
21167;DHT22;10741;52.272;9.580;2023-07-20T07:51:59;18.20;99.90
21167;DHT22;10741;52.272;9.580;2023-07-20T07:54:28;18.40;99.90
21167;DHT22;10741;52.272;9.580;2023-07-20T08:17:37;19.10;99.90
21167;DHT22;10741;52.272;9.580;2023-07-20T08:20:03;18.80;99.90
21167;DHT22;10741;52.272;9.580;2023-07-20T08:22:29;18.80;99.90
21167;DHT22;10741;52.272;9.580;2023-07-20T08:24:55;18.60;99.90
21167;DHT22;10741;52.272;9.580;2023-07-20T08:27:20;18.20;99.90
21167;DHT22;10741;52.272;9.580;2023-07-20T08:29:46;18.00;99.90
21167;DHT22;10741;52.272;9.580;2023-07-20T08:32:12;17.80;99.90
21167;DHT22;10741;52.272;9.580;2023-07-20T08:34:39;17.60;99.90
21167;DHT22;10741;52.272;9.580;2023-07-20T08:37:05;18.00;99.90
21167;DHT22;10741;52.272;9.580;2023-07-20T08:39:31;19.30;99.90
21167;DHT22;10741;52.272;9.580;2023-07-20T08:41:59;20.10;99.90
21167;DHT22;10741;52.272;9.580;2023-07-20T08:44:30;20.80;99.90
21167;DHT22;10741;52.272;9.580;2023-07-20T08:46:56;21.30;99.90
21167;DHT22;10741;52.272;9.580;2023-07-20T08:49:22;21.90;99.90
21167;DHT22;10741;52.272;9.580;2023-07-20T08:51:48;22.30;99.90
21167;DHT22;10741;52.272;9.580;2023-07-20T08:54:14;22.70;99.90
21167;DHT22;10741;52.272;9.580;2023-07-20T08:56:42;22.60;99.90
21167;DHT22;10741;52.272;9.580;2023-07-20T08:59:12;22.10;99.90
21167;DHT22;10741;52.272;9.580;2023-07-20T09:01:39;21.30;99.90
21167;DHT22;10741;52.272;9.580;2023-07-20T09:04:06;20.60;99.90
21167;DHT22;10741;52.272;9.580;2023-07-20T09:06:32;20.90;99.90
21167;DHT22;10741;52.272;9.580;2023-07-20T09:08:59;21.80;99.90
21167;DHT22;10741;52.272;9.580;2023-07-20T09:11:28;22.20;99.90
21167;DHT22;10741;52.272;9.580;2023-07-20T09:14:07;22.50;99.90
21167;DHT22;10741;52.272;9.580;2023-07-20T09:16:47;23.10;99.90
21167;DHT22;10741;52.272;9.580;2023-07-20T09:19:15;23.50;99.90
21167;DHT22;10741;52.272;9.580;2023-07-20T09:21:45;23.90;99.90
21167;DHT22;10741;52.272;9.580;2023-07-20T09:24:12;23.90;99.90
21167;DHT22;10741;52.272;9.580;2023-07-20T09:26:46;24.00;99.90
21167;DHT22;10741;52.272;9.580;2023-07-20T09:29:14;23.40;99.90
21167;DHT22;10741;52.272;9.580;2023-07-20T09:31:40;22.90;99.90
21167;DHT22;10741;52.272;9.580;2023-07-20T09:34:06;23.20;99.90
21167;DHT22;10741;52.272;9.580;2023-07-20T09:36:36;23.80;99.90
21167;DHT22;10741;52.272;9.580;2023-07-20T09:39:03;23.80;99.60
21167;DHT22;10741;52.272;9.580;2023-07-20T09:41:30;23.10;99.90
21167;DHT22;10741;52.272;9.580;2023-07-20T09:44:04;23.20;99.70
21167;DHT22;10741;52.272;9.580;2023-07-20T09:46:45;23.40;97.40
21167;DHT22;10741;52.272;9.580;2023-07-20T09:49:11;23.50;96.90
21167;DHT22;10741;52.272;9.580;2023-07-20T09:51:37;23.60;96.90
21167;DHT22;10741;52.272;9.580;2023-07-20T09:54:04;23.80;97.20
21167;DHT22;10741;52.272;9.580;2023-07-20T09:56:30;24.10;97.60
21167;DHT22;10741;52.272;9.580;2023-07-20T09:58:56;24.20;96.60
21167;DHT22;10741;52.272;9.580;2023-07-20T10:01:22;24.30;96.80
21167;DHT22;10741;52.272;9.580;2023-07-20T10:03:51;24.10;97.20
21167;DHT22;10741;52.272;9.580;2023-07-20T10:06:23;24.00;96.60
21167;DHT22;10741;52.272;9.580;2023-07-20T10:08:52;23.90;99.10
21167;DHT22;10741;52.272;9.580;2023-07-20T10:11:19;24.10;94.90
21167;DHT22;10741;52.272;9.580;2023-07-20T10:13:51;24.10;95.60
21167;DHT22;10741;52.272;9.580;2023-07-20T10:16:40;23.90;95.50
21167;DHT22;10741;52.272;9.580;2023-07-20T10:21:47;23.40;97.40
21167;DHT22;10741;52.272;9.580;2023-07-20T10:24:14;23.40;98.10
21167;DHT22;10741;52.272;9.580;2023-07-20T10:26:41;23.80;98.90
21167;DHT22;10741;52.272;9.580;2023-07-20T10:29:07;23.90;96.90
21167;DHT22;10741;52.272;9.580;2023-07-20T10:31:35;23.80;97.20
21167;DHT22;10741;52.272;9.580;2023-07-20T10:34:02;23.40;96.40
21167;DHT22;10741;52.272;9.580;2023-07-20T10:36:28;23.30;96.90
21167;DHT22;10741;52.272;9.580;2023-07-20T10:38:58;22.80;98.20
21167;DHT22;10741;52.272;9.580;2023-07-20T10:41:34;22.20;97.00
21167;DHT22;10741;52.272;9.580;2023-07-20T10:44:07;21.70;99.80
21167;DHT22;10741;52.272;9.580;2023-07-20T10:49:06;22.00;99.90
21167;DHT22;10741;52.272;9.580;2023-07-20T10:51:46;22.00;99.60
21167;DHT22;10741;52.272;9.580;2023-07-20T10:56:43;21.50;98.00
21167;DHT22;10741;52.272;9.580;2023-07-20T11:01:59;21.10;98.50
21167;DHT22;10741;52.272;9.580;2023-07-20T11:07:06;20.70;99.90
21167;DHT22;10741;52.272;9.580;2023-07-20T11:09:36;20.40;99.90
21167;DHT22;10741;52.272;9.580;2023-07-20T11:12:10;20.30;99.90
21167;DHT22;10741;52.272;9.580;2023-07-20T11:14:40;21.00;99.90
21167;DHT22;10741;52.272;9.580;2023-07-20T11:17:14;21.90;99.90
21167;DHT22;10741;52.272;9.580;2023-07-20T11:19:40;22.40;98.80
21167;DHT22;10741;52.272;9.580;2023-07-20T11:22:07;22.80;98.70
21167;DHT22;10741;52.272;9.580;2023-07-20T11:24:38;22.80;99.40
21167;DHT22;10741;52.272;9.580;2023-07-20T11:27:05;22.20;98.50
21167;DHT22;10741;52.272;9.580;2023-07-20T11:29:31;21.80;99.80
21167;DHT22;10741;52.272;9.580;2023-07-20T11:31:57;21.60;99.90
21167;DHT22;10741;52.272;9.580;2023-07-20T11:34:24;21.20;99.90
21167;DHT22;10741;52.272;9.580;2023-07-20T11:36:51;20.80;99.90
21167;DHT22;10741;52.272;9.580;2023-07-20T11:39:18;20.40;99.90
21167;DHT22;10741;52.272;9.580;2023-07-20T11:41:52;20.10;99.90
21167;DHT22;10741;52.272;9.580;2023-07-20T11:44:20;19.90;99.90
21167;DHT22;10741;52.272;9.580;2023-07-20T11:47:09;19.90;99.90
21167;DHT22;10741;52.272;9.580;2023-07-20T11:49:40;20.20;99.90
21167;DHT22;10741;52.272;9.580;2023-07-20T11:52:10;21.10;99.90
21167;DHT22;10741;52.272;9.580;2023-07-20T11:54:38;22.20;99.90
21167;DHT22;10741;52.272;9.580;2023-07-20T11:57:05;22.90;97.80
21167;DHT22;10741;52.272;9.580;2023-07-20T11:59:31;23.10;97.30
21167;DHT22;10741;52.272;9.580;2023-07-20T12:02:01;22.90;98.30
21167;DHT22;10741;52.272;9.580;2023-07-20T12:04:28;22.60;98.30
21167;DHT22;10741;52.272;9.580;2023-07-20T12:06:54;22.30;98.00
21167;DHT22;10741;52.272;9.580;2023-07-20T12:09:20;22.20;98.80
21167;DHT22;10741;52.272;9.580;2023-07-20T12:11:49;22.30;98.70
21167;DHT22;10741;52.272;9.580;2023-07-20T12:14:15;22.50;98.00
21167;DHT22;10741;52.272;9.580;2023-07-20T12:16:40;22.10;98.70
21167;DHT22;10741;52.272;9.580;2023-07-20T12:19:11;21.90;99.50
21167;DHT22;10741;52.272;9.580;2023-07-20T12:21:40;21.70;99.00
21167;DHT22;10741;52.272;9.580;2023-07-20T12:24:07;21.50;97.70
21167;DHT22;10741;52.272;9.580;2023-07-20T12:26:34;21.40;99.20
21167;DHT22;10741;52.272;9.580;2023-07-20T12:29:00;21.20;98.90
21167;DHT22;10741;52.272;9.580;2023-07-20T12:31:27;21.10;98.90
21167;DHT22;10741;52.272;9.580;2023-07-20T12:33:53;21.10;99.60
21167;DHT22;10741;52.272;9.580;2023-07-20T12:36:21;22.00;99.90
21167;DHT22;10741;52.272;9.580;2023-07-20T12:38:46;23.10;99.90
21167;DHT22;10741;52.272;9.580;2023-07-20T12:41:13;23.30;97.50
21167;DHT22;10741;52.272;9.580;2023-07-20T12:43:43;22.70;97.60
21167;DHT22;10741;52.272;9.580;2023-07-20T12:46:10;22.20;98.10
21167;DHT22;10741;52.272;9.580;2023-07-20T12:48:36;21.90;98.90
21167;DHT22;10741;52.272;9.580;2023-07-20T12:51:07;21.70;97.70
21167;DHT22;10741;52.272;9.580;2023-07-20T12:53:33;21.40;99.20
21167;DHT22;10741;52.272;9.580;2023-07-20T12:55:59;21.20;99.00
21167;DHT22;10741;52.272;9.580;2023-07-20T12:58:25;21.00;99.40
21167;DHT22;10741;52.272;9.580;2023-07-20T13:00:51;20.90;99.90
21167;DHT22;10741;52.272;9.580;2023-07-20T13:03:17;20.80;99.90
21167;DHT22;10741;52.272;9.580;2023-07-20T13:05:48;20.70;99.90
21167;DHT22;10741;52.272;9.580;2023-07-20T13:08:15;20.60;99.90
21167;DHT22;10741;52.272;9.580;2023-07-20T13:10:41;20.70;99.90
21167;DHT22;10741;52.272;9.580;2023-07-20T13:13:07;20.70;99.70
21167;DHT22;10741;52.272;9.580;2023-07-20T13:15:40;20.60;99.90
21167;DHT22;10741;52.272;9.580;2023-07-20T13:18:06;20.60;99.90
21167;DHT22;10741;52.272;9.580;2023-07-20T13:20:31;20.50;99.90
21167;DHT22;10741;52.272;9.580;2023-07-20T13:22:57;20.80;99.90
21167;DHT22;10741;52.272;9.580;2023-07-20T13:25:24;21.60;99.90
21167;DHT22;10741;52.272;9.580;2023-07-20T13:27:50;22.00;99.90
21167;DHT22;10741;52.272;9.580;2023-07-20T13:30:16;21.70;99.60
21167;DHT22;10741;52.272;9.580;2023-07-20T13:32:45;21.60;99.50
21167;DHT22;10741;52.272;9.580;2023-07-20T13:35:14;21.50;99.90
21167;DHT22;10741;52.272;9.580;2023-07-20T13:37:40;21.30;99.90
21167;DHT22;10741;52.272;9.580;2023-07-20T13:40:07;21.20;99.70
21167;DHT22;10741;52.272;9.580;2023-07-20T13:42:37;20.90;99.30
21167;DHT22;10741;52.272;9.580;2023-07-20T13:45:03;20.80;99.90
21167;DHT22;10741;52.272;9.580;2023-07-20T13:47:29;20.60;99.10
21167;DHT22;10741;52.272;9.580;2023-07-20T13:49:55;20.40;98.50
21167;DHT22;10741;52.272;9.580;2023-07-20T13:52:21;20.20;98.60
21167;DHT22;10741;52.272;9.580;2023-07-20T13:54:47;20.10;98.70
21167;DHT22;10741;52.272;9.580;2023-07-20T13:57:13;20.20;99.20
21167;DHT22;10741;52.272;9.580;2023-07-20T13:59:40;20.50;99.90
21167;DHT22;10741;52.272;9.580;2023-07-20T14:02:06;21.70;97.90
21167;DHT22;10741;52.272;9.580;2023-07-20T14:04:31;22.40;96.80
21167;DHT22;10741;52.272;9.580;2023-07-20T14:06:57;22.90;98.10
21167;DHT22;10741;52.272;9.580;2023-07-20T14:09:23;23.00;95.70
21167;DHT22;10741;52.272;9.580;2023-07-20T14:11:49;23.40;97.10
21167;DHT22;10741;52.272;9.580;2023-07-20T14:14:15;23.90;95.60
21167;DHT22;10741;52.272;9.580;2023-07-20T14:16:41;24.00;93.90
21167;DHT22;10741;52.272;9.580;2023-07-20T14:19:07;24.00;94.70
21167;DHT22;10741;52.272;9.580;2023-07-20T14:21:32;24.20;95.60
21167;DHT22;10741;52.272;9.580;2023-07-20T14:23:58;24.50;96.00
21167;DHT22;10741;52.272;9.580;2023-07-20T14:26:24;23.60;94.30
21167;DHT22;10741;52.272;9.580;2023-07-20T14:28:50;23.20;95.70
21167;DHT22;10741;52.272;9.580;2023-07-20T14:31:16;23.30;95.20
21167;DHT22;10741;52.272;9.580;2023-07-20T14:33:42;23.60;95.00
21167;DHT22;10741;52.272;9.580;2023-07-20T14:36:08;23.60;95.00
21167;DHT22;10741;52.272;9.580;2023-07-20T14:38:34;23.70;95.80
21167;DHT22;10741;52.272;9.580;2023-07-20T14:41:00;23.80;94.90
21167;DHT22;10741;52.272;9.580;2023-07-20T14:43:26;23.70;95.80
21167;DHT22;10741;52.272;9.580;2023-07-20T14:45:52;23.10;96.00
21167;DHT22;10741;52.272;9.580;2023-07-20T14:48:17;23.00;95.40
21167;DHT22;10741;52.272;9.580;2023-07-20T14:50:43;23.10;96.10
21167;DHT22;10741;52.272;9.580;2023-07-20T14:53:12;23.10;94.90
21167;DHT22;10741;52.272;9.580;2023-07-20T14:55:38;23.20;95.00
21167;DHT22;10741;52.272;9.580;2023-07-20T14:58:04;23.20;95.00
21167;DHT22;10741;52.272;9.580;2023-07-20T15:00:29;23.00;95.80
21167;DHT22;10741;52.272;9.580;2023-07-20T15:02:56;22.90;95.80
21167;DHT22;10741;52.272;9.580;2023-07-20T15:05:22;22.80;95.20
21167;DHT22;10741;52.272;9.580;2023-07-20T15:07:49;22.70;95.70
21167;DHT22;10741;52.272;9.580;2023-07-20T15:10:18;22.50;95.80
21167;DHT22;10741;52.272;9.580;2023-07-20T15:12:43;22.30;96.90
21167;DHT22;10741;52.272;9.580;2023-07-20T15:15:11;22.10;96.70
21167;DHT22;10741;52.272;9.580;2023-07-20T15:17:38;21.80;95.60
21167;DHT22;10741;52.272;9.580;2023-07-20T15:20:06;21.60;96.50
21167;DHT22;10741;52.272;9.580;2023-07-20T15:22:33;21.40;97.50
21167;DHT22;10741;52.272;9.580;2023-07-20T15:24:59;21.30;96.30
21167;DHT22;10741;52.272;9.580;2023-07-20T15:27:26;21.20;97.50
21167;DHT22;10741;52.272;9.580;2023-07-20T15:29:51;21.10;97.00
21167;DHT22;10741;52.272;9.580;2023-07-20T15:32:18;21.00;96.60
21167;DHT22;10741;52.272;9.580;2023-07-20T15:34:44;21.10;98.00
21167;DHT22;10741;52.272;9.580;2023-07-20T15:37:11;21.10;96.90
21167;DHT22;10741;52.272;9.580;2023-07-20T15:39:37;21.00;96.80
21167;DHT22;10741;52.272;9.580;2023-07-20T15:42:03;20.90;97.50
21167;DHT22;10741;52.272;9.580;2023-07-20T15:44:29;20.80;98.00
21167;DHT22;10741;52.272;9.580;2023-07-20T15:46:55;20.70;98.30
21167;DHT22;10741;52.272;9.580;2023-07-20T15:49:21;20.70;99.10
21167;DHT22;10741;52.272;9.580;2023-07-20T15:51:47;20.70;99.20
21167;DHT22;10741;52.272;9.580;2023-07-20T15:54:14;20.50;98.60
21167;DHT22;10741;52.272;9.580;2023-07-20T15:56:40;20.20;98.20
21167;DHT22;10741;52.272;9.580;2023-07-20T15:59:09;20.00;98.60
21167;DHT22;10741;52.272;9.580;2023-07-20T16:01:36;19.90;99.40
21167;DHT22;10741;52.272;9.580;2023-07-20T16:04:02;19.80;99.90
21167;DHT22;10741;52.272;9.580;2023-07-20T16:06:28;19.80;99.90
21167;DHT22;10741;52.272;9.580;2023-07-20T16:08:54;19.70;99.90
21167;DHT22;10741;52.272;9.580;2023-07-20T16:11:20;19.80;99.90
21167;DHT22;10741;52.272;9.580;2023-07-20T16:13:50;20.00;99.90